sensor_id;sensor_type;location;lat;lon;timestamp;pressure;altitude;pressure_sealevel;temperature;humidity
70445;BME280;57902;49.638;11.070;2023-01-27T00:00:51;98536.63;;;-1.58;100.00
70445;BME280;57902;49.638;11.070;2023-01-27T00:03:19;98540.91;;;-1.55;100.00
70445;BME280;57902;49.638;11.070;2023-01-27T00:05:46;98535.91;;;-1.53;100.00
70445;BME280;57902;49.638;11.070;2023-01-27T00:08:13;98540.97;;;-1.53;100.00
70445;BME280;57902;49.638;11.070;2023-01-27T00:10:40;98538.41;;;-1.55;100.00
70445;BME280;57902;49.638;11.070;2023-01-27T00:13:12;98540.00;;;-1.59;100.00
70445;BME280;57902;49.638;11.070;2023-01-27T00:15:54;98536.69;;;-1.56;100.00
70445;BME280;57902;49.638;11.070;2023-01-27T00:18:21;98526.63;;;-1.53;100.00
70445;BME280;57902;49.638;11.070;2023-01-27T00:20:48;98524.97;;;-1.52;100.00
70445;BME280;57902;49.638;11.070;2023-01-27T00:23:34;98516.50;;;-1.53;100.00
70445;BME280;57902;49.638;11.070;2023-01-27T00:26:19;98523.25;;;-1.53;100.00
70445;BME280;57902;49.638;11.070;2023-01-27T00:28:46;98520.66;;;-1.56;100.00
70445;BME280;57902;49.638;11.070;2023-01-27T00:31:15;98523.19;;;-1.56;100.00
70445;BME280;57902;49.638;11.070;2023-01-27T00:34:01;98516.53;;;-1.51;100.00
70445;BME280;57902;49.638;11.070;2023-01-27T00:36:35;98515.75;;;-1.50;100.00
70445;BME280;57902;49.638;11.070;2023-01-27T00:39:04;98518.19;;;-1.53;100.00
70445;BME280;57902;49.638;11.070;2023-01-27T00:41:31;98513.94;;;-1.56;100.00
70445;BME280;57902;49.638;11.070;2023-01-27T00:43:59;98517.38;;;-1.52;100.00
70445;BME280;57902;49.638;11.070;2023-01-27T00:46:29;98511.44;;;-1.54;100.00
70445;BME280;57902;49.638;11.070;2023-01-27T00:48:55;98513.22;;;-1.50;100.00
70445;BME280;57902;49.638;11.070;2023-01-27T00:51:22;98509.88;;;-1.49;100.00
70445;BME280;57902;49.638;11.070;2023-01-27T00:53:49;98515.72;;;-1.52;100.00
70445;BME280;57902;49.638;11.070;2023-01-27T00:56:18;98513.28;;;-1.47;100.00
70445;BME280;57902;49.638;11.070;2023-01-27T00:58:45;98516.59;;;-1.50;100.00
70445;BME280;57902;49.638;11.070;2023-01-27T01:01:13;98517.56;;;-1.45;100.00
70445;BME280;57902;49.638;11.070;2023-01-27T01:03:40;98520.03;;;-1.46;100.00
70445;BME280;57902;49.638;11.070;2023-01-27T01:06:11;98527.53;;;-1.51;100.00
70445;BME280;57902;49.638;11.070;2023-01-27T01:08:38;98533.47;;;-1.49;100.00
70445;BME280;57902;49.638;11.070;2023-01-27T01:11:05;98524.16;;;-1.50;100.00
70445;BME280;57902;49.638;11.070;2023-01-27T01:13:32;98537.63;;;-1.52;100.00
70445;BME280;57902;49.638;11.070;2023-01-27T01:16:07;98536.03;;;-1.47;100.00
70445;BME280;57902;49.638;11.070;2023-01-27T01:18:34;98540.28;;;-1.46;100.00
70445;BME280;57902;49.638;11.070;2023-01-27T01:21:00;98539.34;;;-1.50;100.00
70445;BME280;57902;49.638;11.070;2023-01-27T01:23:27;98546.88;;;-1.51;100.00
70445;BME280;57902;49.638;11.070;2023-01-27T01:25:55;98547.72;;;-1.52;100.00
70445;BME280;57902;49.638;11.070;2023-01-27T01:28:23;98536.69;;;-1.56;100.00
70445;BME280;57902;49.638;11.070;2023-01-27T01:30:50;98541.69;;;-1.58;100.00
70445;BME280;57902;49.638;11.070;2023-01-27T01:33:17;98537.50;;;-1.57;100.00
70445;BME280;57902;49.638;11.070;2023-01-27T01:35:43;98530.84;;;-1.53;100.00
70445;BME280;57902;49.638;11.070;2023-01-27T01:38:10;98533.41;;;-1.52;100.00
70445;BME280;57902;49.638;11.070;2023-01-27T01:40:41;98533.44;;;-1.50;100.00
70445;BME280;57902;49.638;11.070;2023-01-27T01:43:12;98536.03;;;-1.47;100.00
70445;BME280;57902;49.638;11.070;2023-01-27T01:45:45;98530.91;;;-1.50;100.00
70445;BME280;57902;49.638;11.070;2023-01-27T01:50:41;98529.97;;;-1.55;100.00
70445;BME280;57902;49.638;11.070;2023-01-27T01:53:10;98537.56;;;-1.55;100.00
70445;BME280;57902;49.638;11.070;2023-01-27T01:55:38;98528.25;;;-1.56;100.00
70445;BME280;57902;49.638;11.070;2023-01-27T01:58:07;98531.59;;;-1.58;100.00
70445;BME280;57902;49.638;11.070;2023-01-27T02:00:35;98528.34;;;-1.52;100.00
70445;BME280;57902;49.638;11.070;2023-01-27T02:03:02;98535.03;;;-1.55;100.00
70445;BME280;57902;49.638;11.070;2023-01-27T02:05:32;98542.00;;;-1.45;100.00
70445;BME280;57902;49.638;11.070;2023-01-27T02:08:06;98542.72;;;-1.51;100.00
70445;BME280;57902;49.638;11.070;2023-01-27T02:10:33;98541.69;;;-1.58;100.00
70445;BME280;57902;49.638;11.070;2023-01-27T02:13:00;98545.81;;;-1.63;100.00
70445;BME280;57902;49.638;11.070;2023-01-27T02:15:28;98535.63;;;-1.66;100.00
70445;BME280;57902;49.638;11.070;2023-01-27T02:17:55;98535.66;;;-1.64;100.00
70445;BME280;57902;49.638;11.070;2023-01-27T02:28:04;98526.41;;;-1.64;100.00
70445;BME280;57902;49.638;11.070;2023-01-27T02:30:32;98523.91;;;-1.62;100.00
70445;BME280;57902;49.638;11.070;2023-01-27T02:32:59;98525.56;;;-1.64;100.00
70445;BME280;57902;49.638;11.070;2023-01-27T02:38:18;98538.00;;;-1.72;100.00
70445;BME280;57902;49.638;11.070;2023-01-27T02:40:52;98541.69;;;-1.58;100.00
70445;BME280;57902;49.638;11.070;2023-01-27T02:43:20;98537.47;;;-1.59;100.00
70445;BME280;57902;49.638;11.070;2023-01-27T02:45:46;98535.00;;;-1.57;100.00
70445;BME280;57902;49.638;11.070;2023-01-27T02:48:13;98526.13;;;-1.76;100.00
70445;BME280;57902;49.638;11.070;2023-01-27T02:50:40;98527.09;;;-1.69;100.00
70445;BME280;57902;49.638;11.070;2023-01-27T02:53:07;98526.09;;;-1.78;100.00
70445;BME280;57902;49.638;11.070;2023-01-27T02:55:33;98528.75;;;-1.71;100.00
70445;BME280;57902;49.638;11.070;2023-01-27T02:58:00;98526.72;;;-1.86;100.00
70445;BME280;57902;49.638;11.070;2023-01-27T03:00:26;98524.47;;;-1.74;100.00
70445;BME280;57902;49.638;11.070;2023-01-27T03:02:53;98528.78;;;-1.70;100.00
70445;BME280;57902;49.638;11.070;2023-01-27T03:05:19;98530.50;;;-1.69;100.00
70445;BME280;57902;49.638;11.070;2023-01-27T03:07:46;98534.72;;;-1.68;100.00
70445;BME280;57902;49.638;11.070;2023-01-27T03:10:12;98538.75;;;-1.76;100.00
70445;BME280;57902;49.638;11.070;2023-01-27T03:12:39;98542.25;;;-1.71;100.00
70445;BME280;57902;49.638;11.070;2023-01-27T03:15:06;98545.53;;;-1.73;100.00
70445;BME280;57902;49.638;11.070;2023-01-27T03:17:51;98542.03;;;-1.80;100.00
70445;BME280;57902;49.638;11.070;2023-01-27T03:20:35;98543.56;;;-1.85;100.00
70445;BME280;57902;49.638;11.070;2023-01-27T03:23:02;98542.69;;;-1.87;100.00
70445;BME280;57902;49.638;11.070;2023-01-27T03:25:29;98533.28;;;-1.93;100.00
70445;BME280;57902;49.638;11.070;2023-01-27T03:27:56;98545.88;;;-1.95;100.00
70445;BME280;57902;49.638;11.070;2023-01-27T03:30:22;98538.16;;;-2.01;100.00
70445;BME280;57902;49.638;11.070;2023-01-27T03:32:49;98538.38;;;-1.91;100.00
70445;BME280;57902;49.638;11.070;2023-01-27T03:35:15;98532.44;;;-1.94;100.00
70445;BME280;57902;49.638;11.070;2023-01-27T03:37:42;98529.16;;;-1.89;100.00
70445;BME280;57902;49.638;11.070;2023-01-27T03:40:28;98537.03;;;-1.77;100.00
70445;BME280;57902;49.638;11.070;2023-01-27T03:43:13;98539.38;;;-1.86;100.00
70445;BME280;57902;49.638;11.070;2023-01-27T03:45:59;98542.63;;;-1.90;100.00
70445;BME280;57902;49.638;11.070;2023-01-27T03:48:46;98539.41;;;-1.85;100.00
70445;BME280;57902;49.638;11.070;2023-01-27T03:51:14;98534.28;;;-1.88;100.00
70445;BME280;57902;49.638;11.070;2023-01-27T03:53:41;98536.69;;;-1.91;100.00
70445;BME280;57902;49.638;11.070;2023-01-27T03:56:07;98540.75;;;-1.98;100.00
70445;BME280;57902;49.638;11.070;2023-01-27T03:58:35;98540.53;;;-2.07;100.00
70445;BME280;57902;49.638;11.070;2023-01-27T04:01:05;98538.97;;;-2.02;100.00
70445;BME280;57902;49.638;11.070;2023-01-27T04:03:33;98535.72;;;-1.98;100.00
70445;BME280;57902;49.638;11.070;2023-01-27T04:06:27;98533.25;;;-1.95;100.00
70445;BME280;57902;49.638;11.070;2023-01-27T04:09:26;98542.34;;;-2.01;100.00
70445;BME280;57902;49.638;11.070;2023-01-27T04:11:54;98540.53;;;-2.07;100.00
70445;BME280;57902;49.638;11.070;2023-01-27T04:14:35;98542.19;;;-2.07;100.00
70445;BME280;57902;49.638;11.070;2023-01-27T04:17:15;98534.63;;;-2.07;100.00
70445;BME280;57902;49.638;11.070;2023-01-27T04:19:42;98538.59;;;-2.17;100.00
70445;BME280;57902;49.638;11.070;2023-01-27T04:22:10;98540.44;;;-2.10;100.00
70445;BME280;57902;49.638;11.070;2023-01-27T04:24:38;98542.97;;;-2.10;100.00
70445;BME280;57902;49.638;11.070;2023-01-27T04:27:06;98542.91;;;-2.13;100.00
70445;BME280;57902;49.638;11.070;2023-01-27T04:29:36;98547.25;;;-2.07;100.00
70445;BME280;57902;49.638;11.070;2023-01-27T04:32:04;98548.94;;;-2.08;100.00
70445;BME280;57902;49.638;11.070;2023-01-27T04:34:34;98543.91;;;-2.06;100.00
70445;BME280;57902;49.638;11.070;2023-01-27T04:37:01;98535.53;;;-2.05;100.00
70445;BME280;57902;49.638;11.070;2023-01-27T04:39:28;98548.38;;;-1.96;100.00
70445;BME280;57902;49.638;11.070;2023-01-27T04:41:55;98552.41;;;-2.03;100.00
70445;BME280;57902;49.638;11.070;2023-01-27T04:44:22;98554.94;;;-2.03;100.00
70445;BME280;57902;49.638;11.070;2023-01-27T04:46:50;98550.06;;;-1.97;100.00
70445;BME280;57902;49.638;11.070;2023-01-27T04:49:17;98559.34;;;-1.96;100.00
70445;BME280;57902;49.638;11.070;2023-01-27T04:51:43;98554.19;;;-1.99;100.00
70445;BME280;57902;49.638;11.070;2023-01-27T04:54:12;98560.72;;;-2.08;100.00
70445;BME280;57902;49.638;11.070;2023-01-27T04:56:41;98553.97;;;-2.08;100.00
70445;BME280;57902;49.638;11.070;2023-01-27T04:59:11;98551.50;;;-2.06;100.00
70445;BME280;57902;49.638;11.070;2023-01-27T05:01:37;98552.09;;;-2.17;100.00
70445;BME280;57902;49.638;11.070;2023-01-27T05:04:04;98554.56;;;-2.18;100.00
70445;BME280;57902;49.638;11.070;2023-01-27T05:06:31;98552.13;;;-2.15;100.00
70445;BME280;57902;49.638;11.070;2023-01-27T05:08:57;98556.44;;;-2.11;100.00
70445;BME280;57902;49.638;11.070;2023-01-27T05:11:24;98558.84;;;-2.16;100.00
70445;BME280;57902;49.638;11.070;2023-01-27T05:13:50;98556.47;;;-2.09;100.00
70445;BME280;57902;49.638;11.070;2023-01-27T05:16:19;98555.72;;;-2.07;100.00
70445;BME280;57902;49.638;11.070;2023-01-27T05:18:47;98554.88;;;-2.06;100.00
70445;BME280;57902;49.638;11.070;2023-01-27T05:21:17;98552.34;;;-2.06;100.00
70445;BME280;57902;49.638;11.070;2023-01-27T05:23:44;98561.59;;;-2.06;100.00
70445;BME280;57902;49.638;11.070;2023-01-27T05:26:18;98560.50;;;-2.16;100.00
70445;BME280;57902;49.638;11.070;2023-01-27T05:28:47;98570.69;;;-2.13;100.00
70445;BME280;57902;49.638;11.070;2023-01-27T05:31:16;98570.25;;;-1.98;100.00
70445;BME280;57902;49.638;11.070;2023-01-27T05:33:47;98565.09;;;-2.01;100.00
70445;BME280;57902;49.638;11.070;2023-01-27T05:36:16;98569.22;;;-2.05;100.00
70445;BME280;57902;49.638;11.070;2023-01-27T05:38:43;98571.59;;;-2.11;100.00
70445;BME280;57902;49.638;11.070;2023-01-27T05:41:11;98574.88;;;-2.14;100.00
70445;BME280;57902;49.638;11.070;2023-01-27T05:43:40;98572.44;;;-2.11;100.00
70445;BME280;57902;49.638;11.070;2023-01-27T05:46:09;98577.53;;;-2.09;100.00
70445;BME280;57902;49.638;11.070;2023-01-27T05:48:41;98575.56;;;-2.19;100.00
70445;BME280;57902;49.638;11.070;2023-01-27T05:51:09;98590.03;;;-2.14;100.00
70445;BME280;57902;49.638;11.070;2023-01-27T05:53:39;98593.41;;;-2.13;100.00
70445;BME280;57902;49.638;11.070;2023-01-27T05:56:06;98598.47;;;-2.13;100.00
70445;BME280;57902;49.638;11.070;2023-01-27T05:58:36;98589.25;;;-2.13;100.00
70445;BME280;57902;49.638;11.070;2023-01-27T06:01:08;98591.75;;;-2.13;100.00
70445;BME280;57902;49.638;11.070;2023-01-27T06:03:36;98592.84;;;-2.03;100.00
70445;BME280;57902;49.638;11.070;2023-01-27T06:06:03;98597.00;;;-2.05;100.00
70445;BME280;57902;49.638;11.070;2023-01-27T06:08:30;98596.81;;;-2.13;100.00
70445;BME280;57902;49.638;11.070;2023-01-27T06:10:57;98601.94;;;-2.09;100.00
70445;BME280;57902;49.638;11.070;2023-01-27T06:13:24;98604.59;;;-2.05;100.00
70445;BME280;57902;49.638;11.070;2023-01-27T06:15:50;98613.75;;;-2.08;100.00
70445;BME280;57902;49.638;11.070;2023-01-27T06:18:18;98616.91;;;-2.17;100.00
70445;BME280;57902;49.638;11.070;2023-01-27T06:20:45;98612.88;;;-2.09;100.00
70445;BME280;57902;49.638;11.070;2023-01-27T06:23:13;98617.13;;;-2.08;100.00
70445;BME280;57902;49.638;11.070;2023-01-27T06:25:42;98619.81;;;-2.02;100.00
70445;BME280;57902;49.638;11.070;2023-01-27T06:28:10;98618.09;;;-2.03;100.00
70445;BME280;57902;49.638;11.070;2023-01-27T06:30:52;98619.09;;;-1.98;100.00
70445;BME280;57902;49.638;11.070;2023-01-27T06:33:18;98617.44;;;-1.96;100.00
70445;BME280;57902;49.638;11.070;2023-01-27T06:35:45;98625.91;;;-1.95;99.57
70445;BME280;57902;49.638;11.070;2023-01-27T06:38:12;98626.66;;;-1.98;99.86
70445;BME280;57902;49.638;11.070;2023-01-27T06:40:40;98626.59;;;-2.01;99.90
70445;BME280;57902;49.638;11.070;2023-01-27T06:43:11;98629.84;;;-2.05;100.00
70445;BME280;57902;49.638;11.070;2023-01-27T06:45:39;98633.31;;;-2.00;100.00
70445;BME280;57902;49.638;11.070;2023-01-27T06:48:05;98641.44;;;-2.12;100.00
70445;BME280;57902;49.638;11.070;2023-01-27T06:50:34;98634.75;;;-2.11;100.00
70445;BME280;57902;49.638;11.070;2023-01-27T06:53:04;98634.06;;;-2.05;100.00
70445;BME280;57902;49.638;11.070;2023-01-27T06:55:31;98628.19;;;-2.03;100.00
70445;BME280;57902;49.638;11.070;2023-01-27T06:57:57;98634.91;;;-2.05;100.00
70445;BME280;57902;49.638;11.070;2023-01-27T07:00:24;98634.00;;;-2.07;100.00
70445;BME280;57902;49.638;11.070;2023-01-27T07:02:54;98624.88;;;-2.02;100.00
70445;BME280;57902;49.638;11.070;2023-01-27T07:05:20;98625.66;;;-2.03;100.00
70445;BME280;57902;49.638;11.070;2023-01-27T07:07:47;98631.63;;;-2.01;100.00
70445;BME280;57902;49.638;11.070;2023-01-27T07:10:13;98639.25;;;-1.99;100.00
70445;BME280;57902;49.638;11.070;2023-01-27T07:12:40;98639.25;;;-1.99;100.00
70445;BME280;57902;49.638;11.070;2023-01-27T07:15:08;98637.63;;;-1.97;100.00
70445;BME280;57902;49.638;11.070;2023-01-27T07:17:35;98634.28;;;-1.96;100.00
70445;BME280;57902;49.638;11.070;2023-01-27T07:20:03;98641.06;;;-1.95;100.00
70445;BME280;57902;49.638;11.070;2023-01-27T07:22:30;98633.47;;;-1.95;100.00
70445;BME280;57902;49.638;11.070;2023-01-27T07:25:00;98642.97;;;-1.86;100.00
70445;BME280;57902;49.638;11.070;2023-01-27T07:27:26;98645.50;;;-1.86;100.00
70445;BME280;57902;49.638;11.070;2023-01-27T07:29:53;98657.28;;;-1.85;100.00
70445;BME280;57902;49.638;11.070;2023-01-27T07:32:20;98660.72;;;-1.83;100.00
70445;BME280;57902;49.638;11.070;2023-01-27T07:34:46;98664.94;;;-1.82;100.00
70445;BME280;57902;49.638;11.070;2023-01-27T07:37:13;98667.72;;;-1.73;100.00
70445;BME280;57902;49.638;11.070;2023-01-27T07:39:39;98672.75;;;-1.74;100.00
70445;BME280;57902;49.638;11.070;2023-01-27T07:42:07;98676.78;;;-1.81;100.00
70445;BME280;57902;49.638;11.070;2023-01-27T07:44:33;98675.13;;;-1.79;100.00
70445;BME280;57902;49.638;11.070;2023-01-27T07:47:00;98679.53;;;-1.72;99.70
70445;BME280;57902;49.638;11.070;2023-01-27T07:49:28;98677.50;;;-1.85;99.37
70445;BME280;57902;49.638;11.070;2023-01-27T07:51:55;98673.88;;;-1.97;99.40
70445;BME280;57902;49.638;11.070;2023-01-27T07:54:25;98671.69;;;-1.83;99.54
70445;BME280;57902;49.638;11.070;2023-01-27T07:56:52;98676.94;;;-1.75;100.00
70445;BME280;57902;49.638;11.070;2023-01-27T07:59:18;98668.63;;;-1.71;98.36
70445;BME280;57902;49.638;11.070;2023-01-27T08:01:45;98678.72;;;-1.71;98.37
70445;BME280;57902;49.638;11.070;2023-01-27T08:04:13;98681.41;;;-1.65;97.39
70445;BME280;57902;49.638;11.070;2023-01-27T08:06:40;98674.09;;;-1.54;98.04
70445;BME280;57902;49.638;11.070;2023-01-27T08:09:06;98680.78;;;-1.56;97.53
70445;BME280;57902;49.638;11.070;2023-01-27T08:11:33;98678.28;;;-1.54;97.77
70445;BME280;57902;49.638;11.070;2023-01-27T08:14:00;98682.59;;;-1.50;97.57
70445;BME280;57902;49.638;11.070;2023-01-27T08:16:26;98680.16;;;-1.47;96.95
70445;BME280;57902;49.638;11.070;2023-01-27T08:18:53;98686.63;;;-1.59;96.70
70445;BME280;57902;49.638;11.070;2023-01-27T08:21:20;98683.19;;;-1.61;96.51
70445;BME280;57902;49.638;11.070;2023-01-27T08:23:46;98679.28;;;-1.49;97.50
70445;BME280;57902;49.638;11.070;2023-01-27T08:26:13;98686.38;;;-1.34;96.62
70445;BME280;57902;49.638;11.070;2023-01-27T08:28:40;98687.47;;;-1.25;96.95
70445;BME280;57902;49.638;11.070;2023-01-27T08:31:10;98685.03;;;-1.20;96.71
70445;BME280;57902;49.638;11.070;2023-01-27T08:33:38;98681.69;;;-1.19;96.36
70445;BME280;57902;49.638;11.070;2023-01-27T08:36:08;98688.84;;;-1.01;96.35
70445;BME280;57902;49.638;11.070;2023-01-27T08:38:36;98688.09;;;-0.98;95.02
70445;BME280;57902;49.638;11.070;2023-01-27T08:43:41;98691.72;;;-0.85;93.84
70445;BME280;57902;49.638;11.070;2023-01-27T08:46:08;98695.34;;;-0.74;93.10
70445;BME280;57902;49.638;11.070;2023-01-27T08:48:36;98696.00;;;-0.83;93.78
70445;BME280;57902;49.638;11.070;2023-01-27T08:51:03;98693.63;;;-0.75;93.60
70445;BME280;57902;49.638;11.070;2023-01-27T08:53:34;98689.44;;;-0.75;93.76
70445;BME280;57902;49.638;11.070;2023-01-27T08:56:05;98691.34;;;-0.66;93.54
70445;BME280;57902;49.638;11.070;2023-01-27T08:58:33;98695.53;;;-0.65;93.01
70445;BME280;57902;49.638;11.070;2023-01-27T09:01:01;98690.34;;;-0.71;94.08
70445;BME280;57902;49.638;11.070;2023-01-27T09:03:29;98690.47;;;-0.65;93.31
70445;BME280;57902;49.638;11.070;2023-01-27T09:05:56;98697.34;;;-0.61;92.95
70445;BME280;57902;49.638;11.070;2023-01-27T09:08:23;98692.97;;;-0.66;92.39
70445;BME280;57902;49.638;11.070;2023-01-27T09:10:50;98698.03;;;-0.66;92.60
70445;BME280;57902;49.638;11.070;2023-01-27T09:13:17;98697.00;;;-0.76;93.04
70445;BME280;57902;49.638;11.070;2023-01-27T09:15:43;98702.59;;;-0.51;93.20
70445;BME280;57902;49.638;11.070;2023-01-27T09:18:11;98695.13;;;-0.47;91.50
70445;BME280;57902;49.638;11.070;2023-01-27T09:20:38;98695.13;;;-0.47;92.83
70445;BME280;57902;49.638;11.070;2023-01-27T09:23:04;98709.31;;;-0.54;92.18
70445;BME280;57902;49.638;11.070;2023-01-27T09:25:31;98716.09;;;-0.52;92.87
70445;BME280;57902;49.638;11.070;2023-01-27T09:27:58;98716.22;;;-0.46;91.51
70445;BME280;57902;49.638;11.070;2023-01-27T09:30:26;98717.88;;;-0.48;91.28
70445;BME280;57902;49.638;11.070;2023-01-27T09:32:57;98715.03;;;-0.62;91.71
70445;BME280;57902;49.638;11.070;2023-01-27T09:35:25;98719.34;;;-0.58;92.34
70445;BME280;57902;49.638;11.070;2023-01-27T09:37:55;98721.91;;;-0.57;92.63
70445;BME280;57902;49.638;11.070;2023-01-27T09:40:50;98725.94;;;-0.65;93.15
70445;BME280;57902;49.638;11.070;2023-01-27T10:03:45;98708.22;;;-0.65;92.38
70445;BME280;57902;49.638;11.070;2023-01-27T10:23:03;98730.66;;;-0.42;91.57
70445;BME280;57902;49.638;11.070;2023-01-27T10:28:10;98742.31;;;-0.49;92.42
70445;BME280;57902;49.638;11.070;2023-01-27T10:33:51;98736.66;;;-0.37;91.23
70445;BME280;57902;49.638;11.070;2023-01-27T10:36:25;98734.25;;;-0.31;90.66
70445;BME280;57902;49.638;11.070;2023-01-27T10:39:10;98738.97;;;-0.08;89.06
70445;BME280;57902;49.638;11.070;2023-01-27T10:42:09;98732.63;;;-0.29;89.65
70445;BME280;57902;49.638;11.070;2023-01-27T10:44:59;98724.97;;;-0.32;89.96
70445;BME280;57902;49.638;11.070;2023-01-27T10:50:28;98722.28;;;-0.40;90.92
70445;BME280;57902;49.638;11.070;2023-01-27T10:53:00;98727.44;;;-0.35;91.17
70445;BME280;57902;49.638;11.070;2023-01-27T10:58:30;98727.84;;;-0.15;89.97
70445;BME280;57902;49.638;11.070;2023-01-27T11:01:00;98720.56;;;0.02;90.03
70445;BME280;57902;49.638;11.070;2023-01-27T11:06:32;98710.44;;;0.02;89.73
70445;BME280;57902;49.638;11.070;2023-01-27T11:09:17;98712.72;;;-0.10;89.91
70445;BME280;57902;49.638;11.070;2023-01-27T11:11:50;98714.00;;;0.10;88.91
70445;BME280;57902;49.638;11.070;2023-01-27T11:14:22;98703.31;;;0.27;87.78
70445;BME280;57902;49.638;11.070;2023-01-27T11:22:50;98707.91;;;0.48;85.64
70445;BME280;57902;49.638;11.070;2023-01-27T11:27:54;98709.38;;;0.37;85.58
70445;BME280;57902;49.638;11.070;2023-01-27T11:30:32;98706.59;;;0.23;86.13
70445;BME280;57902;49.638;11.070;2023-01-27T11:36:07;98705.78;;;0.24;87.07
70445;BME280;57902;49.638;11.070;2023-01-27T11:38:34;98705.13;;;0.34;85.98
70445;BME280;57902;49.638;11.070;2023-01-27T11:41:01;98703.53;;;0.41;86.06
70445;BME280;57902;49.638;11.070;2023-01-27T11:43:28;98700.00;;;0.31;85.54
70445;BME280;57902;49.638;11.070;2023-01-27T11:46:00;98697.22;;;0.19;87.07
70445;BME280;57902;49.638;11.070;2023-01-27T11:48:35;98693.09;;;0.22;87.25
70445;BME280;57902;49.638;11.070;2023-01-27T11:51:17;98683.81;;;0.24;85.30
70445;BME280;57902;49.638;11.070;2023-01-27T11:56:35;98674.41;;;0.19;85.41
70445;BME280;57902;49.638;11.070;2023-01-27T11:59:16;98682.16;;;0.28;86.03
70445;BME280;57902;49.638;11.070;2023-01-27T12:01:52;98669.44;;;0.25;86.25
70445;BME280;57902;49.638;11.070;2023-01-27T12:07:03;98677.69;;;0.62;82.71
70445;BME280;57902;49.638;11.070;2023-01-27T12:09:38;98682.56;;;0.49;83.96
70445;BME280;57902;49.638;11.070;2023-01-27T12:14:54;98675.81;;;0.50;85.02
70445;BME280;57902;49.638;11.070;2023-01-27T12:17:34;98682.84;;;0.66;83.64
70445;BME280;57902;49.638;11.070;2023-01-27T12:22:58;98682.53;;;0.48;84.65
70445;BME280;57902;49.638;11.070;2023-01-27T12:25:28;98680.78;;;0.45;82.56
70445;BME280;57902;49.638;11.070;2023-01-27T12:28:02;98666.84;;;0.22;83.97
70445;BME280;57902;49.638;11.070;2023-01-27T12:30:33;98673.66;;;0.24;84.27
70445;BME280;57902;49.638;11.070;2023-01-27T12:33:23;98668.81;;;0.38;84.40
70445;BME280;57902;49.638;11.070;2023-01-27T12:35:56;98662.00;;;0.34;84.40
70445;BME280;57902;49.638;11.070;2023-01-27T12:38:26;98665.56;;;0.45;83.39
70445;BME280;57902;49.638;11.070;2023-01-27T12:41:02;98657.50;;;0.19;84.27
70445;BME280;57902;49.638;11.070;2023-01-27T12:43:29;98655.97;;;0.27;84.66
70445;BME280;57902;49.638;11.070;2023-01-27T12:48:46;98653.41;;;0.26;84.73
70445;BME280;57902;49.638;11.070;2023-01-27T12:51:20;98650.16;;;0.33;84.67
70445;BME280;57902;49.638;11.070;2023-01-27T12:53:49;98662.13;;;0.40;83.77
70445;BME280;57902;49.638;11.070;2023-01-27T12:56:21;98656.81;;;0.28;84.24
70445;BME280;57902;49.638;11.070;2023-01-27T12:58:56;98651.75;;;0.29;83.91
70445;BME280;57902;49.638;11.070;2023-01-27T13:03:59;98653.19;;;0.13;84.98
70445;BME280;57902;49.638;11.070;2023-01-27T13:06:39;98658.31;;;0.16;84.53
70445;BME280;57902;49.638;11.070;2023-01-27T13:12:15;98657.56;;;0.21;84.03
70445;BME280;57902;49.638;11.070;2023-01-27T13:14:50;98664.44;;;0.29;82.73
70445;BME280;57902;49.638;11.070;2023-01-27T13:19:53;98663.84;;;0.41;82.61
70445;BME280;57902;49.638;11.070;2023-01-27T13:22:23;98670.59;;;0.42;81.87
70445;BME280;57902;49.638;11.070;2023-01-27T13:24:55;98677.56;;;0.54;81.15
70445;BME280;57902;49.638;11.070;2023-01-27T13:27:24;98671.72;;;0.58;79.81
70445;BME280;57902;49.638;11.070;2023-01-27T13:30:03;98681.00;;;0.58;80.97
70445;BME280;57902;49.638;11.070;2023-01-27T13:32:34;98681.72;;;0.49;80.05
70445;BME280;57902;49.638;11.070;2023-01-27T13:35:20;98681.69;;;0.47;81.21
70445;BME280;57902;49.638;11.070;2023-01-27T13:38:09;98682.66;;;0.56;82.27
70445;BME280;57902;49.638;11.070;2023-01-27T13:40:43;98681.78;;;0.54;80.56
70445;BME280;57902;49.638;11.070;2023-01-27T13:43:25;98690.31;;;0.59;80.51
70445;BME280;57902;49.638;11.070;2023-01-27T13:48:49;98682.50;;;0.46;81.71
70445;BME280;57902;49.638;11.070;2023-01-27T13:51:19;98677.47;;;0.48;81.63
70445;BME280;57902;49.638;11.070;2023-01-27T13:53:52;98680.03;;;0.51;82.03
70445;BME280;57902;49.638;11.070;2023-01-27T13:56:26;98683.88;;;0.29;82.37
70445;BME280;57902;49.638;11.070;2023-01-27T14:02:54;98699.59;;;0.57;81.88
70445;BME280;57902;49.638;11.070;2023-01-27T14:08:26;98689.91;;;0.34;81.53
70445;BME280;57902;49.638;11.070;2023-01-27T14:11:19;98690.72;;;0.33;81.64
70445;BME280;57902;49.638;11.070;2023-01-27T14:14:15;98694.28;;;0.41;81.66
70445;BME280;57902;49.638;11.070;2023-01-27T14:22:24;98699.19;;;0.33;81.83
70445;BME280;57902;49.638;11.070;2023-01-27T14:25:18;98690.94;;;0.45;81.53
70445;BME280;57902;49.638;11.070;2023-01-27T14:27:51;98692.44;;;0.34;81.74
70445;BME280;57902;49.638;11.070;2023-01-27T14:33:15;98689.28;;;0.47;80.75
70445;BME280;57902;49.638;11.070;2023-01-27T14:35:57;98693.56;;;0.50;80.99
70445;BME280;57902;49.638;11.070;2023-01-27T14:38:32;98691.56;;;0.33;81.66
70445;BME280;57902;49.638;11.070;2023-01-27T14:41:23;98701.25;;;0.55;79.71
70445;BME280;57902;49.638;11.070;2023-01-27T14:47:25;98699.78;;;0.20;81.36
70445;BME280;57902;49.638;11.070;2023-01-27T15:01:48;98706.31;;;0.09;82.55
70445;BME280;57902;49.638;11.070;2023-01-27T15:04:25;98711.47;;;0.12;82.67
70445;BME280;57902;49.638;11.070;2023-01-27T15:20:40;98721.50;;;0.07;83.28
70445;BME280;57902;49.638;11.070;2023-01-27T15:23:37;98730.72;;;0.02;83.03
70445;BME280;57902;49.638;11.070;2023-01-27T15:26:09;98720.53;;;-0.01;83.56
70445;BME280;57902;49.638;11.070;2023-01-27T15:28:39;98729.88;;;0.02;83.46
70445;BME280;57902;49.638;11.070;2023-01-27T15:33:55;98736.44;;;-0.08;84.68